createdAt,value
2023-07-03T00:00:13.556Z,69.44
2023-07-03T00:05:36.785Z,69.42
2023-07-03T00:10:40.043Z,69.04
2023-07-03T00:15:43.312Z,69.29
2023-07-03T00:20:47.053Z,69.43
2023-07-03T00:25:51.351Z,69.61
2023-07-03T00:30:54.917Z,70.32
2023-07-03T00:35:58.403Z,70.33
2023-07-03T00:41:01.632Z,70.53
2023-07-03T00:46:04.832Z,70.86
2023-07-03T00:51:10.076Z,70.89
2023-07-03T00:56:13.583Z,71.51
2023-07-03T01:01:36.901Z,71.56
2023-07-03T01:06:48.578Z,71.39
2023-07-03T01:11:52.413Z,71.18
2023-07-03T01:16:57.913Z,71.39
2023-07-03T01:22:17.356Z,71.71
2023-07-03T01:27:24.294Z,71.60
2023-07-03T01:32:31.270Z,71.75
2023-07-03T01:37:38.768Z,71.76
2023-07-03T01:42:42.642Z,71.75
2023-07-03T01:47:46.175Z,71.97
2023-07-03T01:52:56.631Z,72.17
2023-07-03T01:58:22.882Z,72.16
2023-07-03T02:03:32.580Z,72.14
2023-07-03T02:08:36.827Z,72.26
2023-07-03T02:13:39.920Z,72.57
2023-07-03T02:18:49.580Z,72.50
2023-07-03T02:23:52.798Z,72.76
2023-07-03T02:28:56.120Z,73.18
2023-07-03T02:33:59.419Z,73.24
2023-07-03T02:39:03.230Z,73.71
2023-07-03T02:44:06.545Z,73.93
2023-07-03T02:49:11.049Z,74.19
2023-07-03T02:54:14.294Z,73.86
2023-07-03T02:59:17.622Z,73.65
2023-07-03T03:04:20.940Z,73.51
2023-07-03T03:09:24.737Z,73.13
2023-07-03T03:14:28.154Z,73.18
2023-07-03T03:19:31.597Z,72.96
2023-07-03T03:24:35.600Z,72.89
2023-07-03T03:29:39.850Z,72.81
2023-07-03T03:34:43.150Z,72.65
2023-07-03T03:39:46.483Z,72.37
2023-07-03T03:44:49.676Z,72.15
2023-07-03T03:49:54.638Z,71.75
2023-07-03T03:54:58.027Z,71.15
2023-07-03T04:00:01.370Z,70.94
2023-07-03T04:05:05.010Z,70.43
2023-07-03T04:10:09.633Z,70.18
2023-07-03T04:15:12.839Z,69.36
2023-07-03T04:20:16.272Z,68.79
2023-07-03T04:25:19.527Z,68.29
2023-07-03T04:30:22.862Z,67.87
2023-07-03T04:35:26.263Z,67.89
2023-07-03T04:40:31.077Z,67.51
2023-07-03T04:45:42.063Z,67.07
2023-07-03T04:50:50.936Z,66.25
2023-07-03T04:55:54.916Z,65.29
2023-07-03T05:00:58.775Z,64.89
2023-07-03T05:06:02.098Z,64.29
2023-07-03T05:11:05.302Z,63.56
2023-07-03T05:16:08.541Z,63.19
2023-07-03T05:21:12.854Z,62.74
2023-07-03T05:26:16.069Z,61.87
2023-07-03T05:31:23.831Z,61.71
2023-07-03T05:36:27.305Z,61.08
2023-07-03T05:41:30.562Z,59.87
2023-07-03T05:46:34.025Z,59.63
2023-07-03T05:51:37.464Z,59.40
2023-07-03T05:56:40.845Z,57.49
2023-07-03T06:01:46.661Z,57.24
2023-07-03T06:06:57.142Z,55.83
2023-07-03T06:12:00.927Z,55.22
2023-07-03T06:17:04.460Z,54.63
2023-07-03T06:22:07.695Z,54.45
2023-07-03T06:27:11.152Z,53.56
2023-07-03T06:32:14.670Z,53.15
2023-07-03T06:37:18.187Z,53.38
2023-07-03T06:42:21.598Z,53.28
2023-07-03T06:47:24.938Z,52.44
2023-07-03T06:52:28.327Z,51.67
2023-07-03T06:57:31.880Z,49.93
2023-07-03T07:02:35.662Z,49.42
2023-07-03T07:07:39.399Z,48.35
2023-07-03T07:12:42.591Z,49.45
2023-07-03T07:17:51.960Z,48.92
2023-07-03T07:22:56.184Z,47.72
2023-07-03T07:27:59.596Z,47.60
2023-07-03T07:33:02.963Z,46.74
2023-07-03T07:38:06.635Z,46.54
2023-07-03T07:43:10.273Z,46.10
2023-07-03T07:48:13.762Z,46.33
2023-07-03T07:53:17.190Z,46.03
2023-07-03T07:58:20.586Z,46.02
2023-07-03T08:03:23.940Z,45.67
2023-07-03T08:08:28.552Z,44.38
2023-07-03T08:13:33.837Z,45.44
2023-07-03T08:18:37.521Z,44.93
2023-07-03T08:23:40.831Z,44.06
2023-07-03T08:28:44.286Z,42.85
2023-07-03T08:33:47.785Z,42.69
2023-07-03T08:38:51.299Z,43.78
2023-07-03T08:43:59.722Z,43.01
2023-07-03T08:49:05.585Z,42.08
2023-07-03T08:54:22.428Z,42.97
2023-07-03T08:59:26.231Z,41.71
2023-07-03T09:04:36.267Z,43.83
2023-07-03T09:10:10.849Z,43.75
2023-07-03T09:15:17.467Z,43.50
2023-07-03T09:20:24.532Z,42.08
2023-07-03T09:25:45.599Z,41.87
2023-07-03T09:30:52.280Z,42.85
2023-07-03T09:35:57.565Z,42.69
2023-07-03T09:41:08.697Z,43.08
2023-07-03T09:46:15.556Z,41.97
2023-07-03T09:51:25.749Z,42.06
2023-07-03T09:56:31.533Z,42.30
2023-07-03T10:07:07.720Z,39.51
2023-07-03T10:12:26.254Z,38.97
2023-07-03T10:17:46.999Z,38.91
2023-07-03T10:22:56.539Z,38.90
2023-07-03T10:28:08.321Z,39.29
2023-07-03T10:33:16.225Z,38.98
2023-07-03T10:38:56.400Z,39.36
2023-07-03T10:44:12.642Z,40.63
2023-07-03T10:49:27.464Z,41.28
2023-07-03T10:55:16.787Z,41.85
2023-07-03T11:00:38.328Z,42.19
2023-07-03T11:05:50.200Z,40.97
2023-07-03T11:11:11.264Z,39.69
2023-07-03T11:16:16.097Z,39.96
2023-07-03T11:32:37.282Z,41.78
2023-07-03T11:47:54.702Z,42.13
2023-07-03T11:52:58.803Z,41.49
2023-07-03T11:58:20.155Z,40.54
2023-07-03T12:03:51.111Z,40.23
2023-07-03T12:09:10.341Z,40.38
2023-07-03T12:15:02.764Z,40.23
2023-07-03T12:20:20.289Z,40.13
2023-07-03T12:25:27.305Z,41.04
2023-07-03T12:30:32.391Z,41.40
2023-07-03T12:35:44.035Z,42.05
2023-07-03T12:40:49.048Z,42.47
2023-07-03T12:45:55.102Z,42.15
2023-07-03T12:51:01.611Z,40.49
2023-07-03T12:56:10.582Z,39.61
2023-07-03T13:01:15.027Z,38.83
2023-07-03T13:06:33.327Z,39.83
2023-07-03T13:11:45.320Z,40.81
2023-07-03T13:16:51.792Z,41.92
2023-07-03T13:21:55.842Z,42.07
2023-07-03T13:27:00.215Z,42.13
2023-07-03T13:32:18.286Z,41.26
2023-07-03T13:37:27.033Z,40.44
2023-07-03T13:42:31.718Z,39.94
2023-07-03T13:47:35.106Z,40.65
2023-07-03T13:52:38.693Z,40.99
2023-07-03T13:57:42.631Z,39.71
2023-07-03T14:02:48.978Z,39.65
2023-07-03T14:07:52.865Z,37.09
2023-07-03T14:12:56.240Z,38.09
2023-07-03T14:17:59.558Z,38.12
2023-07-03T14:23:05.552Z,39.29
2023-07-03T14:28:08.829Z,39.13
2023-07-03T14:33:12.262Z,39.33
2023-07-03T14:38:15.870Z,40.35
2023-07-03T14:43:19.218Z,40.53
2023-07-03T14:48:36.658Z,40.19
2023-07-03T14:53:40.355Z,39.97
2023-07-03T14:58:43.852Z,38.61
2023-07-03T15:03:48.707Z,38.15
2023-07-03T15:08:52.732Z,38.34
2023-07-03T15:13:56.472Z,38.74
2023-07-03T15:19:08.372Z,39.13
2023-07-03T15:24:14.537Z,39.19
2023-07-03T15:29:18.566Z,39.73
2023-07-03T15:34:24.587Z,39.50
2023-07-03T15:39:27.957Z,40.06
2023-07-03T15:44:31.902Z,40.31
2023-07-03T15:49:43.907Z,39.56
2023-07-03T15:54:52.446Z,37.54
2023-07-03T15:59:56.182Z,38.83
2023-07-03T16:04:59.885Z,39.69
2023-07-03T16:10:05.251Z,41.17
2023-07-03T16:15:10.128Z,41.12
2023-07-03T16:20:16.858Z,41.56
2023-07-03T16:25:26.126Z,41.81
2023-07-03T16:30:31.286Z,42.17
2023-07-03T16:35:37.259Z,41.78
2023-07-03T16:40:43.045Z,42.18
2023-07-03T16:45:46.845Z,42.50
2023-07-03T16:50:56.514Z,42.70
2023-07-03T16:56:02.996Z,42.78
2023-07-03T17:01:09.454Z,42.24
2023-07-03T17:06:22.311Z,42.21
2023-07-03T17:11:29.327Z,42.13
2023-07-03T17:16:34.107Z,41.51
2023-07-03T17:21:38.747Z,41.63
2023-07-03T17:26:42.211Z,41.88
2023-07-03T17:31:45.575Z,42.11
2023-07-03T17:36:49.132Z,41.81
2023-07-03T17:41:54.507Z,41.65
2023-07-03T17:46:58.634Z,41.38
2023-07-03T17:52:03.198Z,41.13
2023-07-03T17:57:07.298Z,40.85
2023-07-03T18:02:12.351Z,41.01
2023-07-03T18:07:16.604Z,41.37
2023-07-03T18:12:20.209Z,41.92
2023-07-03T18:17:25.178Z,42.34
2023-07-03T18:22:28.469Z,42.92
2023-07-03T18:27:32.902Z,43.25
2023-07-03T18:32:36.312Z,44.01
2023-07-03T18:37:39.845Z,44.97
2023-07-03T18:42:43.603Z,45.60
2023-07-03T18:47:47.017Z,46.00
2023-07-03T18:52:50.907Z,46.54
2023-07-03T18:57:54.427Z,47.04
2023-07-03T19:02:58.487Z,47.22
2023-07-03T19:08:02.800Z,47.75
2023-07-03T19:13:08.962Z,47.90
2023-07-03T19:18:13.405Z,47.87
2023-07-03T19:23:21.719Z,48.28
2023-07-03T19:28:27.450Z,48.71
2023-07-03T19:33:31.661Z,49.06
2023-07-03T19:38:37.154Z,48.88
2023-07-03T19:43:41.545Z,48.65
2023-07-03T19:48:44.936Z,48.87
2023-07-03T19:53:50.316Z,49.38
2023-07-03T19:58:54.018Z,50.02
2023-07-03T20:03:57.676Z,50.56
2023-07-03T20:09:01.260Z,50.68
2023-07-03T20:14:05.373Z,50.78
2023-07-03T20:19:08.718Z,50.48
2023-07-03T20:24:14.796Z,50.81
2023-07-03T20:29:18.413Z,51.06
2023-07-03T20:34:22.627Z,51.56
2023-07-03T20:39:26.788Z,51.58
2023-07-03T20:44:30.474Z,52.36
2023-07-03T20:49:35.227Z,52.71
2023-07-03T20:54:44.411Z,53.30
2023-07-03T20:59:51.881Z,53.48
2023-07-03T21:04:56.249Z,53.85
2023-07-03T21:09:59.651Z,54.08
2023-07-03T21:15:03.551Z,54.38
2023-07-03T21:20:08.646Z,54.71
2023-07-03T21:25:12.009Z,55.43
2023-07-03T21:30:15.699Z,55.97
2023-07-03T21:35:18.940Z,56.28
2023-07-03T21:40:22.159Z,56.99
2023-07-03T21:45:25.675Z,57.15
2023-07-03T21:50:29.089Z,57.24
2023-07-03T21:55:32.702Z,57.60
2023-07-03T22:00:35.910Z,58.15
2023-07-03T22:05:39.221Z,58.56
2023-07-03T22:10:42.533Z,58.76
2023-07-03T22:15:45.895Z,58.72
2023-07-03T22:20:55.512Z,58.67
2023-07-03T22:26:00.581Z,58.75
2023-07-03T22:31:04.124Z,59.14
2023-07-03T22:36:11.377Z,59.81
2023-07-03T22:41:17.259Z,60.22
2023-07-03T22:46:20.698Z,60.45
2023-07-03T22:51:24.075Z,60.95
2023-07-03T22:56:29.128Z,60.77
2023-07-03T23:01:32.440Z,61.00
2023-07-03T23:06:35.994Z,61.24
2023-07-03T23:11:40.496Z,60.94
2023-07-03T23:16:45.032Z,61.28
2023-07-03T23:21:52.264Z,61.44
2023-07-03T23:26:56.910Z,61.09
2023-07-03T23:32:00.120Z,61.54
2023-07-03T23:37:03.413Z,62.01
2023-07-03T23:42:08.861Z,62.23
2023-07-03T23:47:12.104Z,62.46
2023-07-03T23:52:15.606Z,62.63
2023-07-03T23:57:18.910Z,63.51
